sensor_id;sensor_type;location;lat;lon;timestamp;P1;durP1;ratioP1;P2;durP2;ratioP2
6412;SDS011;3239;48.714;9.472;2023-04-26T00:02:10;11.37;;;9.30;;
6412;SDS011;3239;48.714;9.472;2023-04-26T00:04:37;14.37;;;9.00;;
6412;SDS011;3239;48.714;9.472;2023-04-26T00:07:03;14.60;;;10.03;;
6412;SDS011;3239;48.714;9.472;2023-04-26T00:09:30;13.10;;;9.87;;
6412;SDS011;3239;48.714;9.472;2023-04-26T00:11:56;14.93;;;9.17;;
6412;SDS011;3239;48.714;9.472;2023-04-26T00:14:22;14.70;;;9.07;;
6412;SDS011;3239;48.714;9.472;2023-04-26T00:16:48;13.33;;;9.33;;
6412;SDS011;3239;48.714;9.472;2023-04-26T00:19:14;15.83;;;8.40;;
6412;SDS011;3239;48.714;9.472;2023-04-26T00:21:40;10.10;;;9.00;;
6412;SDS011;3239;48.714;9.472;2023-04-26T00:24:06;14.77;;;9.87;;
6412;SDS011;3239;48.714;9.472;2023-04-26T00:26:32;11.63;;;9.30;;
6412;SDS011;3239;48.714;9.472;2023-04-26T00:28:58;14.73;;;8.90;;
6412;SDS011;3239;48.714;9.472;2023-04-26T00:31:28;16.80;;;8.77;;
6412;SDS011;3239;48.714;9.472;2023-04-26T00:33:53;12.00;;;9.60;;
6412;SDS011;3239;48.714;9.472;2023-04-26T00:36:19;11.40;;;8.27;;
6412;SDS011;3239;48.714;9.472;2023-04-26T00:38:45;10.53;;;7.93;;
6412;SDS011;3239;48.714;9.472;2023-04-26T00:41:11;11.33;;;10.07;;
6412;SDS011;3239;48.714;9.472;2023-04-26T00:43:37;13.60;;;9.43;;
6412;SDS011;3239;48.714;9.472;2023-04-26T00:46:04;10.47;;;8.50;;
6412;SDS011;3239;48.714;9.472;2023-04-26T00:48:30;11.37;;;8.70;;
6412;SDS011;3239;48.714;9.472;2023-04-26T00:50:57;11.60;;;8.80;;
6412;SDS011;3239;48.714;9.472;2023-04-26T00:53:23;8.83;;;7.40;;
6412;SDS011;3239;48.714;9.472;2023-04-26T00:55:50;8.13;;;7.33;;
6412;SDS011;3239;48.714;9.472;2023-04-26T00:58:16;13.97;;;7.90;;
6412;SDS011;3239;48.714;9.472;2023-04-26T01:00:45;12.83;;;8.40;;
6412;SDS011;3239;48.714;9.472;2023-04-26T01:03:10;11.27;;;7.73;;
6412;SDS011;3239;48.714;9.472;2023-04-26T01:05:37;9.90;;;8.03;;
6412;SDS011;3239;48.714;9.472;2023-04-26T01:08:03;11.40;;;8.40;;
6412;SDS011;3239;48.714;9.472;2023-04-26T01:10:30;10.10;;;8.07;;
6412;SDS011;3239;48.714;9.472;2023-04-26T01:12:58;13.23;;;8.47;;
6412;SDS011;3239;48.714;9.472;2023-04-26T01:15:25;8.20;;;7.00;;
6412;SDS011;3239;48.714;9.472;2023-04-26T01:17:52;10.10;;;7.57;;
6412;SDS011;3239;48.714;9.472;2023-04-26T01:20:18;13.47;;;7.60;;
6412;SDS011;3239;48.714;9.472;2023-04-26T01:22:44;14.43;;;9.60;;
6412;SDS011;3239;48.714;9.472;2023-04-26T01:25:10;13.47;;;8.37;;
6412;SDS011;3239;48.714;9.472;2023-04-26T01:27:37;14.73;;;9.10;;
6412;SDS011;3239;48.714;9.472;2023-04-26T01:30:03;13.47;;;8.00;;
6412;SDS011;3239;48.714;9.472;2023-04-26T01:32:29;10.93;;;7.90;;
6412;SDS011;3239;48.714;9.472;2023-04-26T01:34:55;12.47;;;8.47;;
6412;SDS011;3239;48.714;9.472;2023-04-26T01:37:21;12.90;;;8.47;;
6412;SDS011;3239;48.714;9.472;2023-04-26T01:39:47;12.03;;;9.20;;
6412;SDS011;3239;48.714;9.472;2023-04-26T01:42:13;11.53;;;8.43;;
6412;SDS011;3239;48.714;9.472;2023-04-26T01:44:38;16.70;;;8.80;;
6412;SDS011;3239;48.714;9.472;2023-04-26T01:47:04;12.27;;;7.70;;
6412;SDS011;3239;48.714;9.472;2023-04-26T01:49:30;12.47;;;7.83;;
6412;SDS011;3239;48.714;9.472;2023-04-26T01:51:56;11.30;;;8.17;;
6412;SDS011;3239;48.714;9.472;2023-04-26T01:54:23;14.00;;;8.37;;
6412;SDS011;3239;48.714;9.472;2023-04-26T01:56:49;13.70;;;7.73;;
6412;SDS011;3239;48.714;9.472;2023-04-26T01:59:15;12.50;;;8.67;;
6412;SDS011;3239;48.714;9.472;2023-04-26T02:01:41;11.20;;;7.63;;
6412;SDS011;3239;48.714;9.472;2023-04-26T02:04:10;13.70;;;8.93;;
6412;SDS011;3239;48.714;9.472;2023-04-26T02:06:35;12.97;;;7.80;;
6412;SDS011;3239;48.714;9.472;2023-04-26T02:09:02;10.40;;;7.33;;
6412;SDS011;3239;48.714;9.472;2023-04-26T02:11:29;11.03;;;7.50;;
6412;SDS011;3239;48.714;9.472;2023-04-26T02:13:55;11.70;;;7.63;;
6412;SDS011;3239;48.714;9.472;2023-04-26T02:16:21;10.10;;;7.63;;
6412;SDS011;3239;48.714;9.472;2023-04-26T02:18:47;12.50;;;7.40;;
6412;SDS011;3239;48.714;9.472;2023-04-26T02:21:17;13.33;;;7.63;;
6412;SDS011;3239;48.714;9.472;2023-04-26T02:23:43;9.17;;;7.37;;
6412;SDS011;3239;48.714;9.472;2023-04-26T02:26:09;12.23;;;8.53;;
6412;SDS011;3239;48.714;9.472;2023-04-26T02:28:36;15.00;;;9.40;;
6412;SDS011;3239;48.714;9.472;2023-04-26T02:31:02;18.13;;;10.23;;
6412;SDS011;3239;48.714;9.472;2023-04-26T02:33:28;13.23;;;9.07;;
6412;SDS011;3239;48.714;9.472;2023-04-26T02:35:54;14.20;;;8.77;;
6412;SDS011;3239;48.714;9.472;2023-04-26T02:38:20;14.13;;;8.30;;
6412;SDS011;3239;48.714;9.472;2023-04-26T02:40:46;38.10;;;9.60;;
6412;SDS011;3239;48.714;9.472;2023-04-26T02:43:11;18.03;;;9.37;;
6412;SDS011;3239;48.714;9.472;2023-04-26T02:45:41;12.83;;;9.60;;
6412;SDS011;3239;48.714;9.472;2023-04-26T02:48:07;18.80;;;9.50;;
6412;SDS011;3239;48.714;9.472;2023-04-26T02:50:33;14.10;;;10.47;;
6412;SDS011;3239;48.714;9.472;2023-04-26T02:52:58;27.20;;;10.10;;
6412;SDS011;3239;48.714;9.472;2023-04-26T02:55:24;14.20;;;9.37;;
6412;SDS011;3239;48.714;9.472;2023-04-26T02:57:50;15.20;;;8.70;;
6412;SDS011;3239;48.714;9.472;2023-04-26T03:00:16;14.67;;;8.60;;
6412;SDS011;3239;48.714;9.472;2023-04-26T03:02:42;10.30;;;8.50;;
6412;SDS011;3239;48.714;9.472;2023-04-26T03:05:08;9.77;;;7.23;;
6412;SDS011;3239;48.714;9.472;2023-04-26T03:07:34;11.27;;;7.63;;
6412;SDS011;3239;48.714;9.472;2023-04-26T03:10:00;24.30;;;8.90;;
6412;SDS011;3239;48.714;9.472;2023-04-26T03:12:26;11.47;;;8.90;;
6412;SDS011;3239;48.714;9.472;2023-04-26T03:14:52;15.80;;;7.90;;
6412;SDS011;3239;48.714;9.472;2023-04-26T03:17:18;17.53;;;8.30;;
6412;SDS011;3239;48.714;9.472;2023-04-26T03:19:44;14.00;;;8.53;;
6412;SDS011;3239;48.714;9.472;2023-04-26T03:22:09;22.10;;;10.07;;
6412;SDS011;3239;48.714;9.472;2023-04-26T03:24:39;72.23;;;11.13;;
6412;SDS011;3239;48.714;9.472;2023-04-26T03:27:07;41.53;;;10.10;;
6412;SDS011;3239;48.714;9.472;2023-04-26T03:29:33;10.57;;;8.83;;
6412;SDS011;3239;48.714;9.472;2023-04-26T03:31:58;23.40;;;9.50;;
6412;SDS011;3239;48.714;9.472;2023-04-26T03:34:24;41.07;;;10.90;;
6412;SDS011;3239;48.714;9.472;2023-04-26T03:36:51;15.57;;;8.97;;
6412;SDS011;3239;48.714;9.472;2023-04-26T03:39:17;10.23;;;8.70;;
6412;SDS011;3239;48.714;9.472;2023-04-26T03:41:43;12.97;;;8.83;;
6412;SDS011;3239;48.714;9.472;2023-04-26T03:44:08;13.53;;;11.07;;
6412;SDS011;3239;48.714;9.472;2023-04-26T03:46:34;12.80;;;9.33;;
6412;SDS011;3239;48.714;9.472;2023-04-26T03:49:00;14.43;;;9.10;;
6412;SDS011;3239;48.714;9.472;2023-04-26T03:51:26;14.90;;;9.57;;
6412;SDS011;3239;48.714;9.472;2023-04-26T03:53:52;13.60;;;8.80;;
6412;SDS011;3239;48.714;9.472;2023-04-26T03:56:18;13.70;;;10.00;;
6412;SDS011;3239;48.714;9.472;2023-04-26T03:58:45;80.80;;;11.77;;
6412;SDS011;3239;48.714;9.472;2023-04-26T04:01:10;77.23;;;10.80;;
6412;SDS011;3239;48.714;9.472;2023-04-26T04:03:36;54.70;;;10.80;;
6412;SDS011;3239;48.714;9.472;2023-04-26T04:06:02;49.47;;;9.97;;
6412;SDS011;3239;48.714;9.472;2023-04-26T04:08:29;30.40;;;9.37;;
6412;SDS011;3239;48.714;9.472;2023-04-26T04:10:55;91.10;;;10.40;;
6412;SDS011;3239;48.714;9.472;2023-04-26T04:13:20;79.10;;;10.00;;
6412;SDS011;3239;48.714;9.472;2023-04-26T04:15:46;72.87;;;8.40;;
6412;SDS011;3239;48.714;9.472;2023-04-26T04:18:13;14.00;;;7.60;;
6412;SDS011;3239;48.714;9.472;2023-04-26T04:20:39;16.33;;;7.63;;
6412;SDS011;3239;48.714;9.472;2023-04-26T04:23:05;12.13;;;8.17;;
6412;SDS011;3239;48.714;9.472;2023-04-26T04:25:32;9.30;;;6.83;;
6412;SDS011;3239;48.714;9.472;2023-04-26T04:27:59;12.87;;;10.00;;
6412;SDS011;3239;48.714;9.472;2023-04-26T04:30:28;23.37;;;10.83;;
6412;SDS011;3239;48.714;9.472;2023-04-26T04:32:55;23.57;;;11.97;;
6412;SDS011;3239;48.714;9.472;2023-04-26T04:35:23;48.00;;;10.37;;
6412;SDS011;3239;48.714;9.472;2023-04-26T04:37:53;52.73;;;10.53;;
6412;SDS011;3239;48.714;9.472;2023-04-26T04:40:21;19.20;;;9.23;;
6412;SDS011;3239;48.714;9.472;2023-04-26T04:42:48;10.67;;;8.50;;
6412;SDS011;3239;48.714;9.472;2023-04-26T04:45:14;33.20;;;9.40;;
6412;SDS011;3239;48.714;9.472;2023-04-26T04:47:41;112.13;;;11.37;;
6412;SDS011;3239;48.714;9.472;2023-04-26T04:50:08;36.93;;;10.40;;
6412;SDS011;3239;48.714;9.472;2023-04-26T04:52:34;14.20;;;9.37;;
6412;SDS011;3239;48.714;9.472;2023-04-26T04:55:02;20.53;;;9.30;;
6412;SDS011;3239;48.714;9.472;2023-04-26T04:57:29;11.80;;;8.40;;
6412;SDS011;3239;48.714;9.472;2023-04-26T04:59:56;16.90;;;10.03;;
6412;SDS011;3239;48.714;9.472;2023-04-26T05:02:22;28.43;;;8.60;;
6412;SDS011;3239;48.714;9.472;2023-04-26T05:04:48;114.03;;;10.00;;
6412;SDS011;3239;48.714;9.472;2023-04-26T05:07:13;52.90;;;9.60;;
6412;SDS011;3239;48.714;9.472;2023-04-26T05:09:40;191.73;;;9.60;;
6412;SDS011;3239;48.714;9.472;2023-04-26T05:12:06;120.07;;;10.73;;
6412;SDS011;3239;48.714;9.472;2023-04-26T05:14:32;102.03;;;10.67;;
6412;SDS011;3239;48.714;9.472;2023-04-26T05:16:58;181.47;;;12.50;;
6412;SDS011;3239;48.714;9.472;2023-04-26T05:19:24;223.97;;;12.73;;
6412;SDS011;3239;48.714;9.472;2023-04-26T05:21:50;67.07;;;10.30;;
6412;SDS011;3239;48.714;9.472;2023-04-26T05:24:16;129.43;;;14.27;;
6412;SDS011;3239;48.714;9.472;2023-04-26T05:26:42;122.23;;;11.07;;
6412;SDS011;3239;48.714;9.472;2023-04-26T05:29:08;94.60;;;12.80;;
6412;SDS011;3239;48.714;9.472;2023-04-26T05:31:33;149.47;;;13.47;;
6412;SDS011;3239;48.714;9.472;2023-04-26T05:33:59;122.70;;;14.40;;
6412;SDS011;3239;48.714;9.472;2023-04-26T05:36:25;152.70;;;14.50;;
6412;SDS011;3239;48.714;9.472;2023-04-26T05:38:51;107.07;;;12.57;;
6412;SDS011;3239;48.714;9.472;2023-04-26T05:41:17;197.67;;;14.57;;
6412;SDS011;3239;48.714;9.472;2023-04-26T05:43:43;122.97;;;15.30;;
6412;SDS011;3239;48.714;9.472;2023-04-26T05:46:09;148.37;;;14.10;;
6412;SDS011;3239;48.714;9.472;2023-04-26T05:48:35;210.37;;;15.70;;
6412;SDS011;3239;48.714;9.472;2023-04-26T05:51:01;72.13;;;11.53;;
6412;SDS011;3239;48.714;9.472;2023-04-26T05:53:27;35.37;;;10.70;;
6412;SDS011;3239;48.714;9.472;2023-04-26T05:55:52;46.10;;;10.77;;
6412;SDS011;3239;48.714;9.472;2023-04-26T05:58:18;74.30;;;12.60;;
6412;SDS011;3239;48.714;9.472;2023-04-26T06:00:44;32.40;;;11.60;;
6412;SDS011;3239;48.714;9.472;2023-04-26T06:03:10;34.73;;;10.63;;
6412;SDS011;3239;48.714;9.472;2023-04-26T06:05:36;136.17;;;13.20;;
6412;SDS011;3239;48.714;9.472;2023-04-26T06:08:02;26.53;;;11.73;;
6412;SDS011;3239;48.714;9.472;2023-04-26T06:10:29;79.47;;;13.77;;
6412;SDS011;3239;48.714;9.472;2023-04-26T06:12:54;74.30;;;13.17;;
6412;SDS011;3239;48.714;9.472;2023-04-26T06:15:20;109.73;;;13.27;;
6412;SDS011;3239;48.714;9.472;2023-04-26T06:17:46;29.60;;;11.70;;
6412;SDS011;3239;48.714;9.472;2023-04-26T06:20:11;50.77;;;12.20;;
6412;SDS011;3239;48.714;9.472;2023-04-26T06:22:37;26.33;;;11.27;;
6412;SDS011;3239;48.714;9.472;2023-04-26T06:25:03;17.60;;;10.60;;
6412;SDS011;3239;48.714;9.472;2023-04-26T06:27:30;14.60;;;10.50;;
6412;SDS011;3239;48.714;9.472;2023-04-26T06:29:56;14.80;;;10.67;;
6412;SDS011;3239;48.714;9.472;2023-04-26T06:32:22;21.53;;;11.00;;
6412;SDS011;3239;48.714;9.472;2023-04-26T06:34:47;26.50;;;10.47;;
6412;SDS011;3239;48.714;9.472;2023-04-26T06:37:13;22.07;;;10.60;;
6412;SDS011;3239;48.714;9.472;2023-04-26T06:39:40;57.23;;;11.33;;
6412;SDS011;3239;48.714;9.472;2023-04-26T06:42:05;22.63;;;11.37;;
6412;SDS011;3239;48.714;9.472;2023-04-26T06:44:31;26.97;;;12.10;;
6412;SDS011;3239;48.714;9.472;2023-04-26T06:46:57;22.20;;;12.70;;
6412;SDS011;3239;48.714;9.472;2023-04-26T06:49:23;18.07;;;12.17;;
6412;SDS011;3239;48.714;9.472;2023-04-26T06:51:49;18.00;;;11.20;;
6412;SDS011;3239;48.714;9.472;2023-04-26T06:54:18;22.00;;;12.27;;
6412;SDS011;3239;48.714;9.472;2023-04-26T06:56:44;20.10;;;11.77;;
6412;SDS011;3239;48.714;9.472;2023-04-26T06:59:10;15.60;;;10.90;;
6412;SDS011;3239;48.714;9.472;2023-04-26T07:01:37;24.33;;;11.80;;
6412;SDS011;3239;48.714;9.472;2023-04-26T07:04:03;17.60;;;12.40;;
6412;SDS011;3239;48.714;9.472;2023-04-26T07:06:36;18.50;;;12.77;;
6412;SDS011;3239;48.714;9.472;2023-04-26T07:09:03;19.23;;;13.27;;
6412;SDS011;3239;48.714;9.472;2023-04-26T07:11:30;15.87;;;12.67;;
6412;SDS011;3239;48.714;9.472;2023-04-26T07:13:56;16.80;;;11.60;;
6412;SDS011;3239;48.714;9.472;2023-04-26T07:16:22;14.40;;;10.83;;
6412;SDS011;3239;48.714;9.472;2023-04-26T07:18:48;13.03;;;11.00;;
6412;SDS011;3239;48.714;9.472;2023-04-26T07:21:13;13.33;;;10.73;;
6412;SDS011;3239;48.714;9.472;2023-04-26T07:23:40;13.27;;;9.50;;
6412;SDS011;3239;48.714;9.472;2023-04-26T07:26:06;14.73;;;10.37;;
6412;SDS011;3239;48.714;9.472;2023-04-26T07:28:34;17.47;;;12.73;;
6412;SDS011;3239;48.714;9.472;2023-04-26T07:31:00;12.43;;;9.80;;
6412;SDS011;3239;48.714;9.472;2023-04-26T07:33:25;13.43;;;8.53;;
6412;SDS011;3239;48.714;9.472;2023-04-26T07:35:55;12.20;;;8.50;;
6412;SDS011;3239;48.714;9.472;2023-04-26T07:38:24;16.10;;;9.00;;
6412;SDS011;3239;48.714;9.472;2023-04-26T07:40:50;11.30;;;8.47;;
6412;SDS011;3239;48.714;9.472;2023-04-26T07:43:16;15.20;;;8.30;;
6412;SDS011;3239;48.714;9.472;2023-04-26T07:45:43;13.07;;;8.10;;
6412;SDS011;3239;48.714;9.472;2023-04-26T07:48:09;11.03;;;8.07;;
6412;SDS011;3239;48.714;9.472;2023-04-26T07:50:35;10.97;;;8.07;;
6412;SDS011;3239;48.714;9.472;2023-04-26T07:53:01;12.27;;;7.43;;
6412;SDS011;3239;48.714;9.472;2023-04-26T07:55:26;9.20;;;7.07;;
6412;SDS011;3239;48.714;9.472;2023-04-26T07:57:52;10.27;;;5.80;;
6412;SDS011;3239;48.714;9.472;2023-04-26T08:00:18;6.93;;;2.80;;
6412;SDS011;3239;48.714;9.472;2023-04-26T08:02:46;8.80;;;3.17;;
6412;SDS011;3239;48.714;9.472;2023-04-26T08:05:12;6.57;;;3.80;;
6412;SDS011;3239;48.714;9.472;2023-04-26T08:07:38;7.57;;;4.70;;
6412;SDS011;3239;48.714;9.472;2023-04-26T08:10:05;7.80;;;4.50;;
6412;SDS011;3239;48.714;9.472;2023-04-26T08:12:32;8.60;;;4.97;;
6412;SDS011;3239;48.714;9.472;2023-04-26T08:14:59;9.60;;;4.87;;
6412;SDS011;3239;48.714;9.472;2023-04-26T08:17:26;10.27;;;4.83;;
6412;SDS011;3239;48.714;9.472;2023-04-26T08:19:52;5.43;;;4.53;;
6412;SDS011;3239;48.714;9.472;2023-04-26T08:22:17;5.50;;;3.63;;
6412;SDS011;3239;48.714;9.472;2023-04-26T08:24:50;9.47;;;4.13;;
6412;SDS011;3239;48.714;9.472;2023-04-26T08:27:20;11.27;;;3.90;;
6412;SDS011;3239;48.714;9.472;2023-04-26T08:29:46;7.90;;;4.10;;
6412;SDS011;3239;48.714;9.472;2023-04-26T08:32:12;8.03;;;4.30;;
6412;SDS011;3239;48.714;9.472;2023-04-26T08:34:38;8.20;;;4.57;;
6412;SDS011;3239;48.714;9.472;2023-04-26T08:37:07;7.70;;;3.90;;
6412;SDS011;3239;48.714;9.472;2023-04-26T08:39:35;9.40;;;3.60;;
6412;SDS011;3239;48.714;9.472;2023-04-26T08:42:03;6.40;;;3.03;;
6412;SDS011;3239;48.714;9.472;2023-04-26T08:44:37;7.00;;;2.83;;
6412;SDS011;3239;48.714;9.472;2023-04-26T08:47:26;5.10;;;3.10;;
6412;SDS011;3239;48.714;9.472;2023-04-26T08:49:58;3.83;;;3.10;;
6412;SDS011;3239;48.714;9.472;2023-04-26T08:52:29;8.83;;;3.37;;
6412;SDS011;3239;48.714;9.472;2023-04-26T08:54:56;5.20;;;3.43;;
6412;SDS011;3239;48.714;9.472;2023-04-26T08:57:24;10.80;;;3.50;;
6412;SDS011;3239;48.714;9.472;2023-04-26T08:59:50;6.13;;;3.63;;
6412;SDS011;3239;48.714;9.472;2023-04-26T09:02:21;4.37;;;3.20;;
6412;SDS011;3239;48.714;9.472;2023-04-26T09:04:48;7.60;;;4.00;;
6412;SDS011;3239;48.714;9.472;2023-04-26T09:07:19;5.77;;;4.20;;
6412;SDS011;3239;48.714;9.472;2023-04-26T09:09:49;6.30;;;3.90;;
6412;SDS011;3239;48.714;9.472;2023-04-26T09:12:18;7.17;;;4.13;;
6412;SDS011;3239;48.714;9.472;2023-04-26T09:14:45;8.70;;;3.80;;
6412;SDS011;3239;48.714;9.472;2023-04-26T09:17:28;9.43;;;3.67;;
6412;SDS011;3239;48.714;9.472;2023-04-26T09:19:55;6.50;;;3.90;;
6412;SDS011;3239;48.714;9.472;2023-04-26T09:22:35;4.10;;;3.03;;
6412;SDS011;3239;48.714;9.472;2023-04-26T09:25:03;6.00;;;3.10;;
6412;SDS011;3239;48.714;9.472;2023-04-26T09:27:41;14.30;;;3.40;;
6412;SDS011;3239;48.714;9.472;2023-04-26T09:30:12;6.20;;;3.07;;
6412;SDS011;3239;48.714;9.472;2023-04-26T09:35:12;5.63;;;3.10;;
6412;SDS011;3239;48.714;9.472;2023-04-26T09:40:40;7.40;;;3.60;;
6412;SDS011;3239;48.714;9.472;2023-04-26T09:43:08;9.50;;;3.27;;
6412;SDS011;3239;48.714;9.472;2023-04-26T09:48:11;4.27;;;3.27;;
6412;SDS011;3239;48.714;9.472;2023-04-26T09:50:41;5.70;;;2.80;;
6412;SDS011;3239;48.714;9.472;2023-04-26T09:53:09;7.57;;;3.50;;
6412;SDS011;3239;48.714;9.472;2023-04-26T09:55:35;5.10;;;2.90;;
6412;SDS011;3239;48.714;9.472;2023-04-26T09:58:06;8.30;;;3.27;;
6412;SDS011;3239;48.714;9.472;2023-04-26T10:00:34;5.83;;;2.80;;
6412;SDS011;3239;48.714;9.472;2023-04-26T10:03:02;4.03;;;1.93;;
6412;SDS011;3239;48.714;9.472;2023-04-26T10:05:31;6.33;;;2.20;;
6412;SDS011;3239;48.714;9.472;2023-04-26T10:07:57;8.13;;;2.07;;
6412;SDS011;3239;48.714;9.472;2023-04-26T10:10:23;2.80;;;1.77;;
6412;SDS011;3239;48.714;9.472;2023-04-26T10:12:50;4.63;;;2.07;;
6412;SDS011;3239;48.714;9.472;2023-04-26T10:15:16;2.90;;;1.87;;
6412;SDS011;3239;48.714;9.472;2023-04-26T10:17:43;4.93;;;2.00;;
6412;SDS011;3239;48.714;9.472;2023-04-26T10:20:11;5.30;;;2.20;;
6412;SDS011;3239;48.714;9.472;2023-04-26T10:22:45;7.63;;;2.40;;
6412;SDS011;3239;48.714;9.472;2023-04-26T10:25:34;5.57;;;1.90;;
6412;SDS011;3239;48.714;9.472;2023-04-26T10:28:02;4.20;;;2.10;;
6412;SDS011;3239;48.714;9.472;2023-04-26T10:30:28;4.13;;;2.20;;
6412;SDS011;3239;48.714;9.472;2023-04-26T10:35:20;5.67;;;2.47;;
6412;SDS011;3239;48.714;9.472;2023-04-26T10:40:27;7.10;;;2.37;;
6412;SDS011;3239;48.714;9.472;2023-04-26T10:45:41;4.00;;;2.00;;
6412;SDS011;3239;48.714;9.472;2023-04-26T10:48:14;5.20;;;1.97;;
6412;SDS011;3239;48.714;9.472;2023-04-26T10:59:12;6.37;;;2.33;;
6412;SDS011;3239;48.714;9.472;2023-04-26T11:01:38;3.30;;;2.10;;
6412;SDS011;3239;48.714;9.472;2023-04-26T11:04:06;4.87;;;2.30;;
6412;SDS011;3239;48.714;9.472;2023-04-26T11:06:46;3.50;;;1.60;;
6412;SDS011;3239;48.714;9.472;2023-04-26T11:09:35;4.43;;;1.90;;
6412;SDS011;3239;48.714;9.472;2023-04-26T11:12:12;9.00;;;2.30;;
6412;SDS011;3239;48.714;9.472;2023-04-26T11:14:40;2.73;;;1.50;;
6412;SDS011;3239;48.714;9.472;2023-04-26T11:17:10;5.37;;;2.07;;
6412;SDS011;3239;48.714;9.472;2023-04-26T11:19:36;6.33;;;2.40;;
6412;SDS011;3239;48.714;9.472;2023-04-26T11:22:05;4.40;;;2.03;;
6412;SDS011;3239;48.714;9.472;2023-04-26T11:24:32;8.00;;;2.53;;
6412;SDS011;3239;48.714;9.472;2023-04-26T11:27:09;4.40;;;2.10;;
6412;SDS011;3239;48.714;9.472;2023-04-26T11:29:36;8.90;;;2.77;;
6412;SDS011;3239;48.714;9.472;2023-04-26T11:32:02;5.40;;;1.90;;
6412;SDS011;3239;48.714;9.472;2023-04-26T11:34:35;4.73;;;2.37;;
6412;SDS011;3239;48.714;9.472;2023-04-26T11:37:05;6.03;;;1.90;;
6412;SDS011;3239;48.714;9.472;2023-04-26T11:39:32;3.50;;;1.97;;
6412;SDS011;3239;48.714;9.472;2023-04-26T11:42:09;6.60;;;2.57;;
6412;SDS011;3239;48.714;9.472;2023-04-26T11:44:36;6.70;;;2.47;;
6412;SDS011;3239;48.714;9.472;2023-04-26T11:47:04;3.00;;;1.53;;
6412;SDS011;3239;48.714;9.472;2023-04-26T11:49:31;2.80;;;1.70;;
6412;SDS011;3239;48.714;9.472;2023-04-26T11:52:00;4.23;;;1.50;;
6412;SDS011;3239;48.714;9.472;2023-04-26T11:54:29;5.10;;;2.23;;
6412;SDS011;3239;48.714;9.472;2023-04-26T11:56:57;4.10;;;1.50;;
6412;SDS011;3239;48.714;9.472;2023-04-26T11:59:27;5.00;;;2.00;;
6412;SDS011;3239;48.714;9.472;2023-04-26T12:01:54;2.50;;;1.97;;
6412;SDS011;3239;48.714;9.472;2023-04-26T12:04:26;6.83;;;1.20;;
6412;SDS011;3239;48.714;9.472;2023-04-26T12:06:53;5.03;;;1.97;;
6412;SDS011;3239;48.714;9.472;2023-04-26T12:09:23;5.13;;;1.93;;
6412;SDS011;3239;48.714;9.472;2023-04-26T12:11:57;4.80;;;1.73;;
6412;SDS011;3239;48.714;9.472;2023-04-26T12:14:33;4.07;;;1.70;;
6412;SDS011;3239;48.714;9.472;2023-04-26T12:17:03;9.23;;;2.07;;
6412;SDS011;3239;48.714;9.472;2023-04-26T12:19:37;5.63;;;1.70;;
6412;SDS011;3239;48.714;9.472;2023-04-26T12:22:05;2.83;;;1.93;;
6412;SDS011;3239;48.714;9.472;2023-04-26T12:24:32;4.80;;;2.03;;
6412;SDS011;3239;48.714;9.472;2023-04-26T12:27:02;2.10;;;1.87;;
6412;SDS011;3239;48.714;9.472;2023-04-26T12:29:30;2.77;;;1.63;;
6412;SDS011;3239;48.714;9.472;2023-04-26T12:31:57;3.13;;;2.07;;
6412;SDS011;3239;48.714;9.472;2023-04-26T12:34:23;6.63;;;1.90;;
6412;SDS011;3239;48.714;9.472;2023-04-26T12:36:49;3.17;;;1.77;;
6412;SDS011;3239;48.714;9.472;2023-04-26T12:39:15;3.27;;;2.30;;
6412;SDS011;3239;48.714;9.472;2023-04-26T12:41:41;2.80;;;1.90;;
6412;SDS011;3239;48.714;9.472;2023-04-26T12:44:08;4.80;;;1.80;;
6412;SDS011;3239;48.714;9.472;2023-04-26T12:46:35;2.60;;;1.70;;
6412;SDS011;3239;48.714;9.472;2023-04-26T12:49:01;3.00;;;1.67;;
6412;SDS011;3239;48.714;9.472;2023-04-26T12:51:27;7.27;;;2.47;;
6412;SDS011;3239;48.714;9.472;2023-04-26T12:53:54;2.80;;;1.93;;
6412;SDS011;3239;48.714;9.472;2023-04-26T12:56:20;5.33;;;2.23;;
6412;SDS011;3239;48.714;9.472;2023-04-26T12:58:47;9.93;;;1.80;;
6412;SDS011;3239;48.714;9.472;2023-04-26T13:01:12;5.67;;;2.77;;
6412;SDS011;3239;48.714;9.472;2023-04-26T13:03:39;5.30;;;2.43;;
6412;SDS011;3239;48.714;9.472;2023-04-26T13:06:06;4.90;;;2.50;;
6412;SDS011;3239;48.714;9.472;2023-04-26T13:08:32;4.10;;;1.60;;
6412;SDS011;3239;48.714;9.472;2023-04-26T13:10:58;6.57;;;2.63;;
6412;SDS011;3239;48.714;9.472;2023-04-26T13:13:24;6.57;;;2.00;;
6412;SDS011;3239;48.714;9.472;2023-04-26T13:15:50;4.47;;;2.20;;
6412;SDS011;3239;48.714;9.472;2023-04-26T13:18:17;3.50;;;2.43;;
6412;SDS011;3239;48.714;9.472;2023-04-26T13:20:43;4.20;;;2.10;;
6412;SDS011;3239;48.714;9.472;2023-04-26T13:23:09;4.60;;;2.23;;
6412;SDS011;3239;48.714;9.472;2023-04-26T13:25:36;4.27;;;2.00;;
6412;SDS011;3239;48.714;9.472;2023-04-26T13:28:02;4.10;;;2.00;;
6412;SDS011;3239;48.714;9.472;2023-04-26T13:30:28;4.03;;;2.13;;
6412;SDS011;3239;48.714;9.472;2023-04-26T13:32:54;4.97;;;2.13;;
6412;SDS011;3239;48.714;9.472;2023-04-26T13:35:20;6.90;;;2.20;;
6412;SDS011;3239;48.714;9.472;2023-04-26T13:37:46;7.50;;;2.57;;
6412;SDS011;3239;48.714;9.472;2023-04-26T13:40:12;6.13;;;2.20;;
6412;SDS011;3239;48.714;9.472;2023-04-26T13:42:38;3.60;;;1.70;;
6412;SDS011;3239;48.714;9.472;2023-04-26T13:45:05;5.13;;;2.07;;
6412;SDS011;3239;48.714;9.472;2023-04-26T13:47:33;3.17;;;2.07;;
6412;SDS011;3239;48.714;9.472;2023-04-26T13:50:00;5.30;;;1.60;;
6412;SDS011;3239;48.714;9.472;2023-04-26T13:52:26;3.80;;;1.80;;
6412;SDS011;3239;48.714;9.472;2023-04-26T13:54:52;5.93;;;2.20;;
6412;SDS011;3239;48.714;9.472;2023-04-26T13:57:18;5.03;;;1.87;;
6412;SDS011;3239;48.714;9.472;2023-04-26T13:59:44;6.47;;;3.00;;
6412;SDS011;3239;48.714;9.472;2023-04-26T14:02:10;3.63;;;1.77;;
6412;SDS011;3239;48.714;9.472;2023-04-26T14:04:36;3.10;;;1.73;;
6412;SDS011;3239;48.714;9.472;2023-04-26T14:07:03;3.93;;;2.33;;
6412;SDS011;3239;48.714;9.472;2023-04-26T14:09:29;3.90;;;1.93;;
6412;SDS011;3239;48.714;9.472;2023-04-26T14:11:56;5.07;;;2.30;;
6412;SDS011;3239;48.714;9.472;2023-04-26T14:14:22;3.60;;;1.90;;
6412;SDS011;3239;48.714;9.472;2023-04-26T14:16:47;3.00;;;1.97;;
6412;SDS011;3239;48.714;9.472;2023-04-26T14:19:13;2.60;;;1.57;;
6412;SDS011;3239;48.714;9.472;2023-04-26T14:21:40;4.80;;;1.83;;
6412;SDS011;3239;48.714;9.472;2023-04-26T14:24:06;4.93;;;1.90;;
6412;SDS011;3239;48.714;9.472;2023-04-26T14:26:32;3.60;;;1.60;;
6412;SDS011;3239;48.714;9.472;2023-04-26T14:28:59;5.37;;;1.87;;
6412;SDS011;3239;48.714;9.472;2023-04-26T14:31:25;5.63;;;1.70;;
6412;SDS011;3239;48.714;9.472;2023-04-26T14:33:52;6.77;;;2.23;;
6412;SDS011;3239;48.714;9.472;2023-04-26T14:36:18;5.40;;;1.90;;
6412;SDS011;3239;48.714;9.472;2023-04-26T14:38:44;5.03;;;2.00;;
6412;SDS011;3239;48.714;9.472;2023-04-26T14:41:14;3.77;;;1.70;;
6412;SDS011;3239;48.714;9.472;2023-04-26T14:43:41;4.00;;;2.07;;
6412;SDS011;3239;48.714;9.472;2023-04-26T14:46:09;3.70;;;1.93;;
6412;SDS011;3239;48.714;9.472;2023-04-26T14:48:36;6.57;;;1.77;;
6412;SDS011;3239;48.714;9.472;2023-04-26T14:51:02;3.63;;;2.07;;
6412;SDS011;3239;48.714;9.472;2023-04-26T14:53:28;3.97;;;1.70;;
6412;SDS011;3239;48.714;9.472;2023-04-26T14:55:57;5.10;;;1.97;;
6412;SDS011;3239;48.714;9.472;2023-04-26T14:58:23;4.50;;;1.60;;
6412;SDS011;3239;48.714;9.472;2023-04-26T15:00:50;2.17;;;1.57;;
6412;SDS011;3239;48.714;9.472;2023-04-26T15:03:17;5.03;;;1.83;;
6412;SDS011;3239;48.714;9.472;2023-04-26T15:05:44;2.70;;;1.63;;
6412;SDS011;3239;48.714;9.472;2023-04-26T15:08:10;7.10;;;2.13;;
6412;SDS011;3239;48.714;9.472;2023-04-26T15:10:35;6.90;;;1.90;;
6412;SDS011;3239;48.714;9.472;2023-04-26T15:13:01;4.80;;;2.00;;
6412;SDS011;3239;48.714;9.472;2023-04-26T15:15:27;7.70;;;2.70;;
6412;SDS011;3239;48.714;9.472;2023-04-26T15:17:53;5.77;;;2.07;;
6412;SDS011;3239;48.714;9.472;2023-04-26T15:20:19;4.00;;;1.67;;
6412;SDS011;3239;48.714;9.472;2023-04-26T15:22:44;3.80;;;1.80;;
6412;SDS011;3239;48.714;9.472;2023-04-26T15:25:10;7.40;;;2.07;;
6412;SDS011;3239;48.714;9.472;2023-04-26T15:27:36;2.97;;;1.70;;
6412;SDS011;3239;48.714;9.472;2023-04-26T15:30:06;3.13;;;1.83;;